createdAt,value
2022-12-11T00:09:15.664Z,1.74537
2022-12-11T00:19:16.817Z,1.63199
2022-12-11T00:29:17.901Z,1.64909
2022-12-11T00:39:18.983Z,1.61077
2022-12-11T00:49:20.143Z,1.25415
2022-12-11T00:59:21.546Z,0.74584
2022-12-11T01:09:22.678Z,1.38242
2022-12-11T01:19:24.106Z,1.49327
2022-12-11T01:29:30.366Z,1.21013
2022-12-11T01:39:31.666Z,1.30863
2022-12-11T01:49:32.780Z,1.2342
2022-12-11T01:59:33.984Z,1.1962
2022-12-11T02:09:35.113Z,1.27632
2022-12-11T02:19:36.245Z,0.74901
2022-12-11T02:29:37.385Z,0.31164
2022-12-11T02:39:38.553Z,-0.11876
2022-12-11T02:49:39.705Z,-0.11465
2022-12-11T02:59:41.020Z,-0.01932
2022-12-11T03:09:42.152Z,0.14758
2022-12-11T03:19:43.322Z,0.26603
2022-12-11T03:29:44.467Z,0.0323
2022-12-11T03:39:45.588Z,-0.05067
2022-12-11T03:49:46.720Z,0.22771
2022-12-11T03:59:47.878Z,0.23056
2022-12-11T04:09:48.963Z,0.02154
2022-12-11T04:19:50.048Z,-0.10039
2022-12-11T04:29:51.663Z,-0.02344
2022-12-11T04:39:53.125Z,-0.1156
2022-12-11T04:49:54.252Z,0.00982
2022-12-11T04:59:55.442Z,0.09976
2022-12-11T05:09:56.575Z,0.66318
2022-12-11T05:19:57.749Z,0.71607
2022-12-11T05:29:59.710Z,0.66888
2022-12-11T05:40:01.204Z,0.45225
2022-12-11T05:50:03.146Z,0.5745
2022-12-11T06:00:05.015Z,0.31449
2022-12-11T06:10:06.741Z,0.41172
2022-12-11T06:20:08.498Z,0.29358
2022-12-11T06:30:09.892Z,0.20839
2022-12-11T06:40:11.552Z,0.01552
2022-12-11T06:50:12.753Z,0.21251
2022-12-11T07:00:14.086Z,0.31069
2022-12-11T07:10:15.265Z,0.1403
2022-12-11T07:20:16.388Z,-0.20871
2022-12-11T07:30:17.551Z,-0.17957
2022-12-11T07:40:18.771Z,-0.21726
2022-12-11T07:50:19.911Z,0.44307
2022-12-11T08:00:21.320Z,0.26603
2022-12-11T08:10:22.495Z,0.28788
2022-12-11T08:20:23.634Z,0.37434
2022-12-11T08:30:25.088Z,0.05067
2022-12-11T08:40:26.221Z,0.13587
2022-12-11T08:50:27.355Z,-0.51052
2022-12-11T09:00:28.489Z,-0.44782
2022-12-11T09:10:29.618Z,-0.73728
2022-12-11T09:20:31.105Z,-1.09547
2022-12-11T09:30:32.344Z,-0.69833
2022-12-11T09:40:33.557Z,-1.23418
2022-12-11T09:50:34.805Z,-0.57355
2022-12-11T10:00:35.884Z,-1.38113
2022-12-11T10:10:38.113Z,-1.39158
2022-12-11T10:20:39.354Z,-1.38335
2022-12-11T10:30:40.919Z,-1.3558
2022-12-11T10:40:42.177Z,-1.36878
2022-12-11T10:50:43.303Z,-1.37131
2022-12-11T11:00:44.436Z,-1.20251
2022-12-11T11:10:45.555Z,-1.02675
2022-12-11T11:20:46.835Z,-0.77655
2022-12-11T11:30:48.058Z,-0.40696
2022-12-11T11:40:49.259Z,-0.57798
2022-12-11T11:50:50.637Z,-0.59097
2022-12-11T12:00:51.764Z,-0.53079
2022-12-11T12:10:52.895Z,-0.41646
2022-12-11T12:20:54.167Z,-0.273
2022-12-11T12:30:55.298Z,-0.12383
2022-12-11T12:40:56.503Z,0.03927
2022-12-11T12:50:57.624Z,-0.19699
2022-12-11T13:00:58.788Z,-0.46429
2022-12-11T13:10:59.956Z,-0.37688
2022-12-11T13:21:01.324Z,-0.21948
2022-12-11T13:31:03.060Z,-0.39683
2022-12-11T13:41:04.764Z,-0.45098
2022-12-11T13:51:06.430Z,-0.6087
2022-12-11T14:01:08.329Z,-0.57798
2022-12-11T14:11:09.780Z,-0.51876
2022-12-11T14:21:11.302Z,-0.87188
2022-12-11T14:31:12.585Z,-1.11764
2022-12-11T14:41:14.043Z,-1.16388
2022-12-11T14:51:15.217Z,-1.32064
2022-12-11T15:01:16.431Z,-1.21043
2022-12-11T15:11:17.572Z,-1.34091
2022-12-11T15:21:18.707Z,-1.43402
2022-12-11T15:31:19.877Z,-1.50116
2022-12-11T15:41:21.244Z,-1.53948
2022-12-11T15:51:22.428Z,-1.82071
2022-12-11T16:01:23.688Z,-2.00661
2022-12-11T16:11:24.816Z,-1.98856
2022-12-11T16:21:26.004Z,-1.88975
2022-12-11T16:31:27.239Z,-1.84984
2022-12-11T16:41:28.387Z,-1.95847
2022-12-11T16:51:29.542Z,-2.02878
2022-12-11T17:01:31.053Z,-2.10859
2022-12-11T17:11:32.227Z,-2.2739
2022-12-11T17:21:33.364Z,-2.31919
2022-12-11T17:31:34.585Z,-2.45758
2022-12-11T17:41:35.774Z,-2.399
2022-12-11T17:51:36.915Z,-2.31665
2022-12-11T18:01:38.086Z,-2.3157
2022-12-11T18:11:39.258Z,-2.28277
2022-12-11T18:21:40.672Z,-2.27643
2022-12-11T18:31:42.928Z,-2.39646
2022-12-11T18:41:47.450Z,-2.36859
2022-12-11T18:51:55.191Z,-2.36669
2022-12-11T19:01:56.329Z,-2.48609
2022-12-11T19:11:57.487Z,-2.56526
2022-12-11T19:21:58.862Z,-2.59725
2022-12-11T19:32:00.057Z,-2.73501
2022-12-11T19:42:01.516Z,-2.78029
2022-12-11T19:52:03.236Z,-2.86644
2022-12-11T20:02:05.067Z,-3.08242
2022-12-11T20:12:06.817Z,-3.12866
2022-12-11T20:22:08.586Z,-3.19706
2022-12-11T20:32:10.092Z,-3.19548
2022-12-11T20:42:11.783Z,-3.10712
2022-12-11T20:52:12.946Z,-3.0327
2022-12-11T21:02:14.099Z,-3.08527
2022-12-11T21:12:15.251Z,-3.10332
2022-12-11T21:22:16.688Z,-3.12676
2022-12-11T21:32:17.803Z,-3.09224
2022-12-11T21:42:18.947Z,-3.06817
2022-12-11T21:52:20.123Z,-2.95701
2022-12-11T22:02:21.545Z,-2.79581
2022-12-11T22:12:22.798Z,-2.63398
2022-12-11T22:22:23.902Z,-2.54024
2022-12-11T22:32:25.046Z,-2.46487
2022-12-11T22:42:26.269Z,-2.48387
2022-12-11T22:52:27.486Z,-2.42275
2022-12-11T23:02:28.778Z,-2.32172
2022-12-11T23:12:29.975Z,-2.28625
2022-12-11T23:22:31.372Z,-2.45632
2022-12-11T23:32:32.530Z,-3.00705
2022-12-11T23:42:33.658Z,-3.47797
2022-12-11T23:52:34.798Z,-3.73132
